Time;durP1;ratioP1;P1;durP2;ratioP2;P2;SDS_P1;SDS_P2;PMS_P1;PMS_P2;Temp;Humidity;BMP_temperature;BMP_pressure;BME280_temperature;BME280_humidity;BME280_pressure;Samples;Min_cycle;Max_cycle;Signal;HPM_P1;HPM_P2
2021/04/21 00:02:25;;;;;;;22.10;2.72;;;;;;;;;;5037972;28;20029;-62
2021/04/21 00:04:53;;;;;;;10.77;3.05;;;;;;;;;;5051931;28;20021;-61
2021/04/21 00:07:22;;;;;;;17.95;3.35;;;;;;;;;;5051692;28;20037;-61
2021/04/21 00:09:50;;;;;;;17.67;3.05;;;;;;;;;;5038612;28;20380;-66
2021/04/21 00:12:18;;;;;;;17.02;3.08;;;;;;;;;;5048149;28;20408;-65
2021/04/21 00:14:48;;;;;;;12.20;2.97;;;;;;;;;;5047241;28;20439;-62
2021/04/21 00:17:15;;;;;;;12.63;2.70;;;;;;;;;;5050807;28;20074;-62
2021/04/21 00:19:43;;;;;;;9.05;2.42;;;;;;;;;;5047142;28;20751;-64
2021/04/21 00:22:11;;;;;;;11.88;2.63;;;;;;;;;;5039534;28;20572;-66
2021/04/21 00:24:39;;;;;;;22.63;3.60;;;;;;;;;;5042951;28;20028;-62
2021/04/21 00:27:07;;;;;;;12.43;2.90;;;;;;;;;;5043859;28;20046;-69
2021/04/21 00:29:38;;;;;;;17.17;3.40;;;;;;;;;;5044494;28;20060;-66
2021/04/21 00:32:05;;;;;;;16.63;3.40;;;;;;;;;;5052508;28;20029;-64
2021/04/21 00:34:33;;;;;;;14.90;3.22;;;;;;;;;;5048391;28;20495;-64
2021/04/21 00:37:00;;;;;;;15.52;3.08;;;;;;;;;;5049814;28;20017;-63
2021/04/21 00:39:28;;;;;;;20.00;3.58;;;;;;;;;;5039740;28;20033;-67
2021/04/21 00:42:13;;;;;;;19.15;3.67;;;;;;;;;;5038302;28;20132;-61
2021/04/21 00:44:46;;;;;;;14.50;3.50;;;;;;;;;;5037993;28;20033;-66
2021/04/21 00:47:16;;;;;;;13.63;3.10;;;;;;;;;;5046802;28;20120;-63
2021/04/21 00:49:46;;;;;;;17.67;3.92;;;;;;;;;;5042831;28;20036;-62
2021/04/21 00:52:17;;;;;;;23.80;4.45;;;;;;;;;;5046219;28;20116;-66
2021/04/21 00:54:58;;;;;;;14.60;3.70;;;;;;;;;;5040579;28;20477;-67
2021/04/21 00:57:37;;;;;;;28.83;4.22;;;;;;;;;;5044550;28;20025;-64
2021/04/21 01:00:17;;;;;;;22.55;4.13;;;;;;;;;;5044552;28;20495;-65
2021/04/21 01:02:53;;;;;;;18.80;4.45;;;;;;;;;;5043806;28;20099;-65
2021/04/21 01:05:23;;;;;;;28.50;4.88;;;;;;;;;;5034940;28;20025;-66
2021/04/21 01:07:51;;;;;;;13.98;3.95;;;;;;;;;;5032064;28;20088;-64
2021/04/21 01:10:20;;;;;;;24.60;4.55;;;;;;;;;;5031868;28;20393;-66
2021/04/21 01:12:49;;;;;;;15.05;4.20;;;;;;;;;;5031526;28;20076;-67
2021/04/21 01:15:17;;;;;;;15.85;4.10;;;;;;;;;;5034255;28;20021;-67
2021/04/21 01:17:46;;;;;;;15.60;4.35;;;;;;;;;;5032191;28;20049;-64
2021/04/21 01:20:16;;;;;;;16.80;3.92;;;;;;;;;;5031688;28;20026;-64
2021/04/21 01:22:45;;;;;;;19.40;3.90;;;;;;;;;;5038435;28;20729;-65
2021/04/21 01:25:21;;;;;;;17.23;4.30;;;;;;;;;;5044498;28;20104;-66
2021/04/21 01:27:51;;;;;;;21.63;3.88;;;;;;;;;;5035271;28;20036;-66
2021/04/21 01:30:23;;;;;;;18.10;4.25;;;;;;;;;;5047853;28;20123;-66
2021/04/21 01:32:55;;;;;;;18.25;3.85;;;;;;;;;;5042329;28;20416;-67
2021/04/21 01:35:25;;;;;;;;;;;;;;;;;;5042838;28;20009;-67
2021/04/21 01:37:58;;;;;;;15.05;3.78;;;;;;;;;;5042551;28;19908;-66
2021/04/21 01:40:27;;;;;;;13.30;3.85;;;;;;;;;;5031355;28;20045;-65
2021/04/21 01:42:57;;;;;;;18.25;3.65;;;;;;;;;;5031893;28;20038;-66
2021/04/21 01:45:27;;;;;;;17.70;3.90;;;;;;;;;;5030168;28;20025;-65
2021/04/21 01:47:55;;;;;;;17.45;4.57;;;;;;;;;;5031934;28;20060;-65
2021/04/21 01:50:22;;;;;;;16.30;4.10;;;;;;;;;;5044744;28;20583;-66
2021/04/21 01:53:07;;;;;;;13.15;3.72;;;;;;;;;;5036236;28;20484;-64
2021/04/21 01:55:38;;;;;;;18.13;3.67;;;;;;;;;;5042920;28;20021;-66
2021/04/21 01:58:12;;;;;;;23.13;3.92;;;;;;;;;;5040851;28;20112;-66
2021/04/21 02:00:42;;;;;;;24.33;4.30;;;;;;;;;;5044930;28;20025;-66
2021/04/21 02:03:24;;;;;;;18.52;3.63;;;;;;;;;;5046556;28;20481;-64
2021/04/21 02:06:10;;;;;;;17.58;3.70;;;;;;;;;;5046167;28;20025;-66
2021/04/21 02:08:37;;;;;;;20.55;3.55;;;;;;;;;;5034622;28;20615;-66
2021/04/21 02:11:16;;;;;;;16.65;3.50;;;;;;;;;;5034749;28;20022;-65
2021/04/21 02:13:52;;;;;;;18.10;3.47;;;;;;;;;;5042326;28;20030;-63
2021/04/21 02:16:36;;;;;;;16.58;3.53;;;;;;;;;;5040297;28;20481;-65
2021/04/21 02:19:10;;;;;;;13.32;2.90;;;;;;;;;;5030661;28;20063;-65
2021/04/21 02:21:55;;;;;;;21.85;3.90;;;;;;;;;;5041525;28;20036;-64
2021/04/21 02:24:45;;;;;;;18.25;3.22;;;;;;;;;;5039851;28;20025;-63
2021/04/21 02:27:21;;;;;;;15.30;2.63;;;;;;;;;;5038745;28;20045;-65
2021/04/21 02:29:56;;;;;;;19.98;3.70;;;;;;;;;;5040600;28;20025;-65
2021/04/21 02:32:44;;;;;;;15.68;3.10;;;;;;;;;;5045868;28;20096;-64
2021/04/21 02:35:40;;;;;;;16.00;3.42;;;;;;;;;;5051444;28;20017;-66
2021/04/21 02:38:36;;;;;;;9.15;3.10;;;;;;;;;;5047088;28;20072;-66
2021/04/21 02:41:08;;;;;;;11.93;2.83;;;;;;;;;;5042807;28;20028;-65
2021/04/21 02:43:53;;;;;;;13.15;2.70;;;;;;;;;;5050706;28;20424;-66
2021/04/21 02:46:23;;;;;;;13.85;3.10;;;;;;;;;;5049405;28;20087;-65
2021/04/21 02:49:08;;;;;;;8.05;2.65;;;;;;;;;;5051888;28;20025;-65
2021/04/21 02:51:55;;;;;;;13.63;2.33;;;;;;;;;;5051648;28;20033;-63
2021/04/21 02:54:38;;;;;;;13.88;2.55;;;;;;;;;;5043755;28;20471;-65
2021/04/21 02:57:14;;;;;;;13.50;2.42;;;;;;;;;;5035553;28;20034;-65
2021/04/21 02:59:46;;;;;;;12.25;2.83;;;;;;;;;;5035412;28;20026;-63
2021/04/21 03:02:20;;;;;;;12.93;2.87;;;;;;;;;;5035425;28;20032;-66
2021/04/21 03:04:50;;;;;;;8.05;2.40;;;;;;;;;;5036801;28;20272;-64
2021/04/21 03:07:40;;;;;;;9.88;2.97;;;;;;;;;;5055589;28;20036;-64
2021/04/21 03:10:17;;;;;;;11.50;3.35;;;;;;;;;;5052325;28;20037;-65
2021/04/21 03:12:57;;;;;;;7.20;2.13;;;;;;;;;;5054389;28;20043;-63
2021/04/21 03:15:26;;;;;;;8.30;2.58;;;;;;;;;;5050803;28;20388;-64
2021/04/21 03:17:54;;;;;;;5.55;2.28;;;;;;;;;;5055680;28;20021;-64
2021/04/21 03:20:22;;;;;;;8.93;2.28;;;;;;;;;;5055291;28;20110;-65
2021/04/21 03:22:54;;;;;;;11.32;2.50;;;;;;;;;;5054621;28;20020;-63
2021/04/21 03:25:21;;;;;;;;;;;;;;;;;;5050879;28;20032;-65
2021/04/21 03:27:52;;;;;;;7.60;2.20;;;;;;;;;;5055394;28;19912;-65
2021/04/21 03:30:21;;;;;;;8.37;2.23;;;;;;;;;;5055178;28;20033;-65
2021/04/21 03:32:51;;;;;;;11.05;2.28;;;;;;;;;;5054315;28;20056;-65
2021/04/21 03:35:18;;;;;;;7.47;2.10;;;;;;;;;;5051574;28;20061;-63
2021/04/21 03:37:55;;;;;;;5.47;1.90;;;;;;;;;;5053981;28;20021;-63
2021/04/21 03:40:23;;;;;;;5.45;1.83;;;;;;;;;;5054974;28;20112;-63
2021/04/21 03:42:50;;;;;;;9.77;2.47;;;;;;;;;;5053009;28;20051;-64
2021/04/21 03:45:17;;;;;;;12.10;2.47;;;;;;;;;;5053158;28;20435;-64
2021/04/21 03:47:44;;;;;;;10.65;2.20;;;;;;;;;;5051633;28;20044;-62
2021/04/21 03:50:12;;;;;;;6.97;2.22;;;;;;;;;;5054710;28;20465;-65
2021/04/21 03:52:41;;;;;;;9.35;2.10;;;;;;;;;;5053844;28;20465;-64
2021/04/21 03:55:08;;;;;;;15.32;1.90;;;;;;;;;;5069799;28;20025;-65
2021/04/21 03:57:37;;;;;;;10.60;2.08;;;;;;;;;;5048512;28;20428;-65
2021/04/21 04:00:05;;;;;;;6.28;2.05;;;;;;;;;;5054896;28;20013;-63
2021/04/21 04:02:34;;;;;;;5.22;1.85;;;;;;;;;;5053669;28;20031;-63
2021/04/21 04:05:04;;;;;;;7.22;2.15;;;;;;;;;;5054043;28;20480;-62
2021/04/21 04:07:33;;;;;;;5.72;1.88;;;;;;;;;;5048686;28;20040;-63
2021/04/21 04:10:03;;;;;;;7.28;2.10;;;;;;;;;;5054514;28;20017;-65
2021/04/21 04:12:32;;;;;;;10.07;2.08;;;;;;;;;;5053367;28;20096;-63
2021/04/21 04:14:59;;;;;;;8.80;1.98;;;;;;;;;;5053884;28;20060;-62
2021/04/21 04:17:26;;;;;;;5.60;2.13;;;;;;;;;;5049647;28;20048;-62
2021/04/21 04:19:54;;;;;;;6.22;1.90;;;;;;;;;;5054684;28;20045;-62
2021/04/21 04:22:21;;;;;;;7.38;2.10;;;;;;;;;;5052357;28;20025;-62
2021/04/21 04:24:53;;;;;;;7.65;2.35;;;;;;;;;;5054073;28;20017;-63
2021/04/21 04:27:21;;;;;;;9.02;1.77;;;;;;;;;;5049168;28;20378;-63
2021/04/21 04:29:48;;;;;;;11.27;2.38;;;;;;;;;;5054281;28;20024;-63
2021/04/21 04:32:25;;;;;;;5.75;1.92;;;;;;;;;;5053781;28;20106;-63
2021/04/21 04:34:55;;;;;;;3.97;1.65;;;;;;;;;;5053786;28;20495;-63
2021/04/21 04:37:23;;;;;;;4.55;1.50;;;;;;;;;;5048892;28;20022;-62
2021/04/21 04:39:50;;;;;;;4.85;1.90;;;;;;;;;;5053870;28;20108;-61
2021/04/21 04:42:17;;;;;;;9.35;2.25;;;;;;;;;;5053062;28;20045;-62
2021/04/21 04:44:46;;;;;;;9.82;2.20;;;;;;;;;;5052897;28;20049;-64
2021/04/21 04:47:23;;;;;;;10.85;2.00;;;;;;;;;;5048516;28;20037;-63
2021/04/21 04:50:06;;;;;;;4.70;1.60;;;;;;;;;;5053802;28;20025;-62
2021/04/21 04:52:39;;;;;;;5.85;1.50;;;;;;;;;;5053280;28;20028;-63
2021/04/21 04:55:08;;;;;;;4.97;1.50;;;;;;;;;;5051840;28;20122;-62
2021/04/21 04:57:35;;;;;;;6.97;1.65;;;;;;;;;;5048392;28;20032;-62
2021/04/21 05:00:05;;;;;;;6.45;1.60;;;;;;;;;;5052271;28;20392;-63
2021/04/21 05:02:38;;;;;;;8.45;1.60;;;;;;;;;;5053206;28;20020;-63
2021/04/21 05:05:09;;;;;;;5.85;1.70;;;;;;;;;;5052898;28;20465;-63
2021/04/21 05:07:39;;;;;;;6.15;1.42;;;;;;;;;;5048819;28;20044;-63
2021/04/21 05:10:09;;;;;;;7.20;1.63;;;;;;;;;;5033416;28;20026;-65
2021/04/21 05:12:39;;;;;;;5.45;1.50;;;;;;;;;;5033180;28;20025;-65
2021/04/21 05:15:08;;;;;;;4.78;1.90;;;;;;;;;;5032789;28;20022;-64
2021/04/21 05:17:56;;;;;;;4.85;1.67;;;;;;;;;;5033250;28;20032;-64
2021/04/21 05:20:26;;;;;;;5.22;1.80;;;;;;;;;;5068343;28;20105;-65
2021/04/21 05:23:05;;;;;;;5.32;1.80;;;;;;;;;;5052634;28;20060;-65
2021/04/21 05:25:45;;;;;;;3.88;1.48;;;;;;;;;;5052139;28;20029;-65
2021/04/21 05:28:21;;;;;;;3.28;1.80;;;;;;;;;;5047951;28;20191;-65
2021/04/21 05:30:51;;;;;;;5.82;1.65;;;;;;;;;;5052771;28;20054;-66
2021/04/21 05:33:33;;;;;;;5.93;1.67;;;;;;;;;;5052490;28;20029;-63
2021/04/21 05:36:18;;;;;;;4.82;1.58;;;;;;;;;;5052110;28;20086;-61
2021/04/21 05:39:03;;;;;;;3.33;1.50;;;;;;;;;;5047747;28;20029;-62
2021/04/21 05:41:48;;;;;;;3.80;1.55;;;;;;;;;;5052258;28;20044;-64
2021/04/21 05:44:21;;;;;;;2.95;1.60;;;;;;;;;;5052650;28;20033;-64
2021/04/21 05:46:48;;;;;;;3.58;1.40;;;;;;;;;;5051910;28;20021;-65
2021/04/21 05:49:33;;;;;;;7.05;1.80;;;;;;;;;;5047874;28;20029;-65
2021/04/21 05:52:00;;;;;;;3.97;1.50;;;;;;;;;;5052346;28;20270;-65
2021/04/21 05:54:33;;;;;;;6.60;2.33;;;;;;;;;;5052371;28;20424;-64
2021/04/21 05:57:03;;;;;;;7.00;1.30;;;;;;;;;;5051679;28;20027;-65
2021/04/21 05:59:36;;;;;;;5.13;1.55;;;;;;;;;;5047628;28;20013;-64
2021/04/21 06:02:05;;;;;;;3.83;1.30;;;;;;;;;;5052278;28;20060;-64
2021/04/21 06:04:32;;;;;;;4.57;1.30;;;;;;;;;;5052241;28;20483;-64
2021/04/21 06:07:13;;;;;;;4.53;1.60;;;;;;;;;;5051470;28;20037;-65
2021/04/21 06:09:41;;;;;;;5.20;1.35;;;;;;;;;;5047341;28;20021;-65
2021/04/21 06:12:09;;;;;;;4.25;1.70;;;;;;;;;;5051974;28;20048;-65
2021/04/21 06:14:37;;;;;;;6.43;1.73;;;;;;;;;;5052297;28;20095;-65
2021/04/21 06:17:04;;;;;;;4.72;2.10;;;;;;;;;;5051145;28;20041;-65
2021/04/21 06:19:31;;;;;;;4.70;1.67;;;;;;;;;;5047354;28;20132;-64
2021/04/21 06:21:58;;;;;;;5.30;1.95;;;;;;;;;;5051939;28;20554;-63
2021/04/21 06:24:27;;;;;;;5.30;1.67;;;;;;;;;;5052057;28;20021;-65
2021/04/21 06:27:06;;;;;;;3.35;1.40;;;;;;;;;;5051199;28;20025;-65
2021/04/21 06:29:33;;;;;;;4.30;1.50;;;;;;;;;;5047486;28;20040;-62
2021/04/21 06:32:05;;;;;;;5.30;1.58;;;;;;;;;;5051031;28;20021;-65
2021/04/21 06:34:32;;;;;;;4.07;1.50;;;;;;;;;;5051870;28;20392;-64
2021/04/21 06:37:00;;;;;;;3.60;1.55;;;;;;;;;;5051245;28;20056;-65
2021/04/21 06:39:30;;;;;;;2.83;1.38;;;;;;;;;;5049867;28;20440;-63
2021/04/21 06:42:00;;;;;;;4.95;1.63;;;;;;;;;;5048634;28;20052;-65
2021/04/21 06:44:32;;;;;;;5.38;1.50;;;;;;;;;;5051676;28;20059;-65
2021/04/21 06:46:59;;;;;;;4.10;1.40;;;;;;;;;;5051063;28;20235;-63
2021/04/21 06:49:26;;;;;;;6.55;1.55;;;;;;;;;;5051669;28;20369;-64
2021/04/21 06:51:53;;;;;;;4.88;1.55;;;;;;;;;;5046809;28;20116;-65
2021/04/21 06:54:21;;;;;;;5.63;1.67;;;;;;;;;;5051980;28;20021;-64
2021/04/21 06:56:49;;;;;;;4.88;1.40;;;;;;;;;;5051375;28;20472;-66
2021/04/21 06:59:20;;;;;;;5.30;1.88;;;;;;;;;;5051049;28;20055;-65
2021/04/21 07:01:51;;;;;;;3.47;1.40;;;;;;;;;;5046715;28;20021;-65
2021/04/21 07:04:19;;;;;;;7.65;1.83;;;;;;;;;;5051976;28;20100;-64
2021/04/21 07:06:47;;;;;;;3.05;1.48;;;;;;;;;;5051352;28;20063;-65
2021/04/21 07:09:14;;;;;;;2.60;1.40;;;;;;;;;;5050993;28;20025;-64
2021/04/21 07:11:42;;;;;;;5.25;1.30;;;;;;;;;;5046453;28;20476;-64
2021/04/21 07:14:10;;;;;;;3.50;1.67;;;;;;;;;;5051664;28;20062;-64
2021/04/21 07:16:40;;;;;;;7.75;1.50;;;;;;;;;;5051440;28;20035;-65
2021/04/21 07:19:16;;;;;;;4.82;1.70;;;;;;;;;;5050981;28;20032;-65
2021/04/21 07:21:43;;;;;;;4.20;1.60;;;;;;;;;;5046514;28;20507;-65
2021/04/21 07:24:11;;;;;;;4.68;1.40;;;;;;;;;;5050296;28;20037;-64
2021/04/21 07:26:38;;;;;;;5.18;1.35;;;;;;;;;;5051191;28;20550;-64
2021/04/21 07:29:07;;;;;;;3.38;1.38;;;;;;;;;;5050873;28;20402;-65
2021/04/21 07:31:38;;;;;;;2.78;1.25;;;;;;;;;;5046808;28;20088;-64
2021/04/21 07:34:05;;;;;;;2.08;1.10;;;;;;;;;;5051359;28;20024;-63
2021/04/21 07:36:43;;;;;;;5.38;1.40;;;;;;;;;;5051553;28;20071;-66
2021/04/21 07:39:11;;;;;;;5.60;1.63;;;;;;;;;;5050843;28;20040;-66
2021/04/21 07:41:42;;;;;;;3.97;1.77;;;;;;;;;;5045782;28;20552;-64
2021/04/21 07:44:29;;;;;;;4.72;1.63;;;;;;;;;;5055033;28;20476;-63
2021/04/21 07:47:08;;;;;;;4.68;1.50;;;;;;;;;;5054701;28;20116;-66
2021/04/21 07:49:40;;;;;;;6.07;1.55;;;;;;;;;;5069231;28;20556;-64
2021/04/21 07:52:08;;;;;;;4.28;1.63;;;;;;;;;;5049976;28;20029;-65
2021/04/21 07:54:37;;;;;;;3.83;1.30;;;;;;;;;;5055061;28;20021;-66
2021/04/21 07:57:24;;;;;;;4.82;1.27;;;;;;;;;;5053184;28;20459;-65
2021/04/21 07:59:51;;;;;;;3.45;1.67;;;;;;;;;;5053813;28;20023;-65
2021/04/21 08:02:20;;;;;;;4.15;1.45;;;;;;;;;;5049468;28;20416;-64
2021/04/21 08:04:51;;;;;;;3.63;1.55;;;;;;;;;;5054708;28;20019;-64
2021/04/21 08:07:28;;;;;;;3.85;1.33;;;;;;;;;;5054526;28;20470;-63
2021/04/21 08:09:55;;;;;;;3.35;1.95;;;;;;;;;;5053932;28;20032;-64
2021/04/21 08:12:23;;;;;;;5.25;1.65;;;;;;;;;;5048883;28;20392;-61
2021/04/21 08:14:51;;;;;;;8.88;1.80;;;;;;;;;;5054425;28;20025;-63
2021/04/21 08:17:18;;;;;;;2.90;1.30;;;;;;;;;;5054467;28;20049;-63
2021/04/21 08:19:46;;;;;;;2.95;1.30;;;;;;;;;;5053844;28;20029;-63
2021/04/21 08:22:14;;;;;;;2.53;1.30;;;;;;;;;;5049805;28;20031;-62
2021/04/21 08:24:43;;;;;;;2.10;1.08;;;;;;;;;;5053737;28;20021;-63
2021/04/21 08:27:11;;;;;;;3.22;1.38;;;;;;;;;;5053950;28;20496;-64
2021/04/21 08:29:38;;;;;;;3.50;1.63;;;;;;;;;;5053890;28;20465;-62
2021/04/21 08:32:05;;;;;;;4.35;1.40;;;;;;;;;;5051808;28;20021;-63
2021/04/21 08:34:32;;;;;;;3.13;1.30;;;;;;;;;;5051015;28;20025;-63
2021/04/21 08:37:00;;;;;;;3.40;1.40;;;;;;;;;;5052753;28;20027;-63
2021/04/21 08:39:27;;;;;;;3.05;1.58;;;;;;;;;;5053632;28;20029;-62
2021/04/21 08:42:00;;;;;;;4.72;1.70;;;;;;;;;;5051119;28;20032;-63
2021/04/21 08:44:30;;;;;;;3.35;1.23;;;;;;;;;;5048414;28;20071;-61
2021/04/21 08:47:00;;;;;;;4.03;1.65;;;;;;;;;;5048792;28;20033;-61
2021/04/21 08:49:29;;;;;;;4.82;1.75;;;;;;;;;;5053216;28;20060;-62
2021/04/21 08:51:56;;;;;;;4.22;1.40;;;;;;;;;;5052060;28;20634;-64
2021/04/21 08:54:24;;;;;;;7.80;1.73;;;;;;;;;;5047422;28;20017;-66
2021/04/21 08:56:52;;;;;;;3.35;1.48;;;;;;;;;;5051912;28;20357;-63
2021/04/21 08:59:19;;;;;;;4.82;1.38;;;;;;;;;;5050865;28;20028;-61
2021/04/21 09:01:47;;;;;;;5.38;1.40;;;;;;;;;;5052437;28;20036;-63
2021/04/21 09:04:15;;;;;;;2.97;1.20;;;;;;;;;;5047227;28;20025;-62
2021/04/21 09:06:47;;;;;;;3.97;1.42;;;;;;;;;;5052807;28;20052;-63
2021/04/21 09:09:16;;;;;;;4.90;1.80;;;;;;;;;;5052868;28;20079;-63
2021/04/21 09:11:43;;;;;;;2.80;1.25;;;;;;;;;;5049952;28;20017;-62
2021/04/21 09:14:10;;;;;;;2.95;1.23;;;;;;;;;;5047927;28;20040;-65
2021/04/21 09:16:38;;;;;;;6.43;2.15;;;;;;;;;;5042156;28;20017;-62
2021/04/21 09:19:15;;;;;;;7.43;1.50;;;;;;;;;;5032859;28;20088;-62
2021/04/21 09:21:43;;;;;;;4.38;1.25;;;;;;;;;;5033472;28;20052;-64
2021/04/21 09:24:25;;;;;;;3.80;1.48;;;;;;;;;;5035000;28;20028;-68
2021/04/21 09:26:52;;;;;;;4.27;1.47;;;;;;;;;;5048858;28;20025;-71
2021/04/21 09:29:27;;;;;;;3.00;1.30;;;;;;;;;;5049389;28;20033;-69
2021/04/21 09:32:10;;;;;;;5.82;1.70;;;;;;;;;;5052277;28;20053;-71
2021/04/21 09:34:37;;;;;;;3.05;1.30;;;;;;;;;;5035272;28;20021;-61
2021/04/21 09:37:04;;;;;;;6.95;1.98;;;;;;;;;;5041374;28;20049;-60
2021/04/21 09:39:38;;;;;;;4.53;1.60;;;;;;;;;;5033073;28;20025;-61
2021/04/21 09:42:05;;;;;;;4.60;1.52;;;;;;;;;;5031900;28;20048;-64
2021/04/21 09:44:32;;;;;;;4.60;1.48;;;;;;;;;;5032378;28;20425;-65
2021/04/21 09:47:00;;;;;;;4.90;1.85;;;;;;;;;;5037455;28;20568;-65
2021/04/21 09:49:28;;;;;;;3.28;1.45;;;;;;;;;;5032222;28;20044;-64
2021/04/21 09:51:56;;;;;;;4.70;1.63;;;;;;;;;;5036013;28;20060;-64
2021/04/21 09:54:33;;;;;;;3.17;1.58;;;;;;;;;;5051888;28;20017;-69
2021/04/21 09:57:27;;;;;;;9.05;1.85;;;;;;;;;;5052316;28;20060;-62
2021/04/21 10:00:06;;;;;;;4.03;1.63;;;;;;;;;;5050295;28;20505;-62
2021/04/21 10:02:33;;;;;;;11.30;1.77;;;;;;;;;;5052292;28;20021;-64
2021/04/21 10:05:19;;;;;;;6.75;1.52;;;;;;;;;;5050968;28;20064;-61
2021/04/21 10:07:46;;;;;;;7.32;1.85;;;;;;;;;;5052902;28;20086;-61
2021/04/21 10:10:13;;;;;;;4.75;1.42;;;;;;;;;;5049733;28;20017;-60
2021/04/21 10:12:40;;;;;;;6.47;1.33;;;;;;;;;;5051943;28;20029;-62
2021/04/21 10:15:11;;;;;;;5.10;1.50;;;;;;;;;;5049699;28;20030;-61
2021/04/21 10:17:42;;;;;;;7.18;1.67;;;;;;;;;;5041458;28;20021;-62
2021/04/21 10:20:11;;;;;;;8.85;2.05;;;;;;;;;;5040524;28;20037;-62
2021/04/21 10:22:42;;;;;;;6.45;1.55;;;;;;;;;;5044225;28;20040;-61
2021/04/21 10:25:10;;;;;;;7.38;1.90;;;;;;;;;;5043898;28;20052;-60
2021/04/21 10:27:37;;;;;;;5.00;1.67;;;;;;;;;;5050606;28;20037;-60
2021/04/21 10:30:05;;;;;;;5.82;1.63;;;;;;;;;;5043098;28;20151;-61
2021/04/21 10:32:36;;;;;;;4.78;1.42;;;;;;;;;;5032761;28;20026;-61
2021/04/21 10:35:04;;;;;;;10.43;1.90;;;;;;;;;;5030288;28;20071;-61
2021/04/21 10:37:38;;;;;;;6.95;1.58;;;;;;;;;;5032305;28;20096;-61
2021/04/21 10:40:06;;;;;;;5.18;1.40;;;;;;;;;;5032626;28;20017;-61
2021/04/21 10:42:50;;;;;;;4.53;1.38;;;;;;;;;;5038241;28;20662;-61
2021/04/21 10:45:18;;;;;;;5.85;1.58;;;;;;;;;;5040003;28;20104;-61
2021/04/21 10:47:46;;;;;;;5.35;1.45;;;;;;;;;;5041803;28;20047;-60
2021/04/21 10:50:14;;;;;;;3.83;1.40;;;;;;;;;;5050992;28;20036;-60
2021/04/21 10:52:43;;;;;;;7.22;1.60;;;;;;;;;;5052471;28;20036;-61
2021/04/21 10:55:14;;;;;;;5.47;1.40;;;;;;;;;;5052220;28;20099;-61
2021/04/21 10:57:41;;;;;;;3.80;1.30;;;;;;;;;;5051433;28;20036;-61
2021/04/21 11:00:09;;;;;;;4.95;1.40;;;;;;;;;;5051018;28;20021;-61
2021/04/21 11:02:46;;;;;;;4.95;2.08;;;;;;;;;;5052141;28;20025;-61
2021/04/21 11:05:17;;;;;;;4.90;1.42;;;;;;;;;;5051458;28;20374;-61
2021/04/21 11:07:46;;;;;;;6.28;1.45;;;;;;;;;;5052078;28;20029;-60
2021/04/21 11:10:31;;;;;;;5.82;1.90;;;;;;;;;;5050438;28;20390;-60
2021/04/21 11:13:02;;;;;;;6.93;1.80;;;;;;;;;;5044443;28;20391;-60
2021/04/21 11:15:35;;;;;;;4.95;1.40;;;;;;;;;;5052091;28;20025;-60
2021/04/21 11:18:11;;;;;;;6.63;1.67;;;;;;;;;;5055733;28;20025;-59
2021/04/21 11:20:44;;;;;;;5.25;1.58;;;;;;;;;;5055881;28;20392;-60
2021/04/21 11:23:29;;;;;;;4.40;1.40;;;;;;;;;;5053732;28;20029;-60
2021/04/21 11:26:16;;;;;;;3.72;1.30;;;;;;;;;;5055165;28;20028;-62
2021/04/21 11:29:01;;;;;;;4.28;1.30;;;;;;;;;;5055726;28;20508;-60
2021/04/21 11:31:44;;;;;;;4.63;1.30;;;;;;;;;;5055869;28;20074;-63
2021/04/21 11:34:14;;;;;;;5.53;1.52;;;;;;;;;;5053609;28;20072;-62
2021/04/21 11:36:43;;;;;;;6.75;1.85;;;;;;;;;;5055352;28;20021;-64
2021/04/21 11:39:12;;;;;;;3.53;1.42;;;;;;;;;;5055410;28;20028;-64
2021/04/21 11:41:43;;;;;;;7.43;1.48;;;;;;;;;;5055317;28;20021;-59
2021/04/21 11:44:10;;;;;;;6.57;1.67;;;;;;;;;;5054358;28;20412;-63
2021/04/21 11:46:55;;;;;;;3.35;1.60;;;;;;;;;;5052867;28;20021;-62
2021/04/21 11:49:40;;;;;;;6.30;2.20;;;;;;;;;;5055355;28;20032;-61
2021/04/21 11:52:07;;;;;;;4.57;1.65;;;;;;;;;;5055492;28;20027;-61
2021/04/21 11:54:38;;;;;;;3.42;1.35;;;;;;;;;;5051176;28;20064;-61
2021/04/21 11:57:05;;;;;;;5.40;1.42;;;;;;;;;;5049294;28;20031;-60
2021/04/21 11:59:32;;;;;;;5.40;1.50;;;;;;;;;;5053444;28;20029;-60
2021/04/21 12:01:59;;;;;;;4.13;1.38;;;;;;;;;;5055151;28;20024;-60
2021/04/21 12:04:27;;;;;;;4.25;1.35;;;;;;;;;;5055146;28;20063;-60
2021/04/21 12:06:54;;;;;;;2.03;1.08;;;;;;;;;;5054854;28;20029;-61
2021/04/21 12:09:21;;;;;;;3.90;1.35;;;;;;;;;;5052684;28;20028;-62
2021/04/21 12:11:58;;;;;;;4.90;1.63;;;;;;;;;;5034127;28;20040;-61
2021/04/21 12:14:26;;;;;;;6.53;1.55;;;;;;;;;;5035096;28;20037;-61
2021/04/21 12:16:52;;;;;;;5.20;1.80;;;;;;;;;;5034892;28;20462;-61
2021/04/21 12:19:20;;;;;;;3.65;1.45;;;;;;;;;;5034889;28;20493;-61
2021/04/21 12:21:47;;;;;;;4.90;1.40;;;;;;;;;;5033249;28;20025;-60
2021/04/21 12:24:14;;;;;;;3.65;1.60;;;;;;;;;;5033986;28;20026;-61
2021/04/21 12:26:42;;;;;;;5.70;1.50;;;;;;;;;;5033217;28;20026;-61
2021/04/21 12:29:14;;;;;;;5.28;1.10;;;;;;;;;;5034155;28;20100;-61
2021/04/21 12:31:42;;;;;;;4.60;1.40;;;;;;;;;;5035183;28;20477;-65
2021/04/21 12:34:23;;;;;;;39.15;2.28;;;;;;;;;;5032183;28;20033;-62
2021/04/21 12:36:50;;;;;;;4.90;1.13;;;;;;;;;;5034451;28;20017;-64
2021/04/21 12:39:19;;;;;;;4.10;1.27;;;;;;;;;;5033287;28;20025;-62
2021/04/21 12:41:52;;;;;;;4.13;1.35;;;;;;;;;;5034464;28;20024;-61
2021/04/21 12:44:20;;;;;;;3.30;1.50;;;;;;;;;;5034138;28;20024;-62
2021/04/21 12:46:49;;;;;;;7.70;1.98;;;;;;;;;;5044799;28;20029;-66
2021/04/21 12:49:16;;;;;;;5.78;1.70;;;;;;;;;;5054500;28;20080;-61
2021/04/21 12:51:47;;;;;;;4.38;1.52;;;;;;;;;;5042681;28;20029;-60
2021/04/21 12:54:32;;;;;;;4.47;1.60;;;;;;;;;;5034418;28;20057;-66
2021/04/21 12:56:59;;;;;;;6.82;1.65;;;;;;;;;;5042916;28;20060;-64
2021/04/21 12:59:26;;;;;;;6.18;1.60;;;;;;;;;;5046972;28;20103;-63
2021/04/21 13:01:54;;;;;;;4.13;1.30;;;;;;;;;;5048392;28;20396;-64
2021/04/21 13:04:20;;;;;;;5.05;1.58;;;;;;;;;;5048523;28;20072;-65
2021/04/21 13:20:00;;;;;;;6.03;1.52;;;;;;;;;;5120383;27;20486;-65
2021/04/21 13:22:27;;;;;;;13.40;1.88;;;;;;;;;;5105395;28;20475;-64
2021/04/21 13:24:56;;;;;;;8.27;1.52;;;;;;;;;;5107955;28;20034;-65
2021/04/21 13:27:34;;;;;;;9.60;1.73;;;;;;;;;;5109250;28;20020;-62
2021/04/21 13:30:27;;;;;;;9.98;2.08;;;;;;;;;;5109155;28;20386;-62
2021/04/21 13:32:57;;;;;;;9.88;1.60;;;;;;;;;;5104679;28;20040;-62
2021/04/21 13:35:24;;;;;;;5.28;1.38;;;;;;;;;;5108392;28;20027;-63
2021/04/21 13:37:52;;;;;;;18.10;2.42;;;;;;;;;;5107184;28;20020;-62
2021/04/21 13:40:20;;;;;;;17.88;1.77;;;;;;;;;;5109589;28;20020;-67
2021/04/21 13:42:48;;;;;;;14.68;1.65;;;;;;;;;;5109436;28;20035;-61
2021/04/21 13:45:17;;;;;;;9.80;1.77;;;;;;;;;;5107131;28;20024;-63
2021/04/21 13:47:45;;;;;;;7.32;1.77;;;;;;;;;;5107840;28;20036;-67
2021/04/21 13:50:15;;;;;;;6.07;1.80;;;;;;;;;;5109136;28;20043;-63
2021/04/21 13:52:42;;;;;;;5.55;1.40;;;;;;;;;;5108827;28;20031;-63
2021/04/21 13:55:10;;;;;;;8.35;1.98;;;;;;;;;;5107483;28;20081;-63
2021/04/21 13:57:37;;;;;;;9.25;1.63;;;;;;;;;;5106533;28;20502;-61
2021/04/21 14:00:05;;;;;;;7.68;1.75;;;;;;;;;;5108549;28;20030;-61
2021/04/21 14:02:32;;;;;;;5.22;1.83;;;;;;;;;;5107776;28;20436;-60
2021/04/21 14:04:59;;;;;;;8.55;1.60;;;;;;;;;;5107374;28;20020;-65
2021/04/21 14:07:26;;;;;;;8.10;2.08;;;;;;;;;;5108757;28;20031;-62
2021/04/21 14:09:53;;;;;;;7.53;1.58;;;;;;;;;;5085916;28;20056;-62
2021/04/21 14:12:20;;;;;;;7.13;1.40;;;;;;;;;;5108318;28;20391;-61
2021/04/21 14:14:48;;;;;;;6.38;1.58;;;;;;;;;;5108929;28;20026;-59
2021/04/21 14:17:15;;;;;;;5.22;1.50;;;;;;;;;;5094673;28;20023;-60
2021/04/21 14:19:43;;;;;;;2.97;1.45;;;;;;;;;;5080940;28;20055;-65
2021/04/21 14:22:12;;;;;;;8.57;1.67;;;;;;;;;;5072635;28;20043;-62
2021/04/21 14:24:40;;;;;;;7.20;1.40;;;;;;;;;;5074438;28;20518;-62
2021/04/21 14:27:07;;;;;;;4.38;1.77;;;;;;;;;;5074551;28;20039;-60
2021/04/21 14:29:34;;;;;;;3.17;1.45;;;;;;;;;;5074639;28;20037;-64
2021/04/21 14:32:01;;;;;;;4.57;1.70;;;;;;;;;;5074739;28;20020;-61
2021/04/21 14:34:28;;;;;;;6.97;1.85;;;;;;;;;;5072343;28;20066;-63
2021/04/21 14:36:55;;;;;;;6.95;1.30;;;;;;;;;;5074108;28;20445;-64
2021/04/21 14:39:22;;;;;;;3.78;1.15;;;;;;;;;;5073266;28;20082;-62
2021/04/21 14:41:50;;;;;;;6.03;1.25;;;;;;;;;;5074211;28;20411;-63
2021/04/21 14:44:20;;;;;;;5.40;1.48;;;;;;;;;;5070317;28;20029;-61
2021/04/21 14:46:50;;;;;;;5.68;1.50;;;;;;;;;;5061609;28;20100;-62
2021/04/21 14:49:17;;;;;;;5.38;1.15;;;;;;;;;;5063832;28;20036;-62
2021/04/21 14:51:44;;;;;;;6.65;1.75;;;;;;;;;;5066713;28;20032;-61
2021/04/21 14:54:13;;;;;;;7.40;1.77;;;;;;;;;;5065709;28;20097;-61
2021/04/21 14:56:41;;;;;;;7.10;1.58;;;;;;;;;;5072157;28;20024;-63
2021/04/21 14:59:08;;;;;;;3.33;1.40;;;;;;;;;;5066770;28;20013;-62
2021/04/21 15:01:35;;;;;;;7.95;1.45;;;;;;;;;;5069112;28;20107;-64
2021/04/21 15:04:03;;;;;;;9.88;1.40;;;;;;;;;;5067794;28;20044;-65
2021/04/21 15:06:31;;;;;;;8.35;1.60;;;;;;;;;;5070195;28;20032;-62
2021/04/21 15:08:59;;;;;;;4.50;1.50;;;;;;;;;;5075154;28;20032;-64
2021/04/21 15:11:27;;;;;;;7.07;1.45;;;;;;;;;;5062802;28;20029;-63
2021/04/21 15:13:54;;;;;;;7.82;2.00;;;;;;;;;;5070406;28;20020;-61
2021/04/21 15:16:24;;;;;;;6.22;1.25;;;;;;;;;;5073989;28;20021;-62
2021/04/21 15:18:58;;;;;;;5.13;1.40;;;;;;;;;;5062548;28;20045;-62